sensor_id;sensor_type;location;lat;lon;timestamp;P1;durP1;ratioP1;P2;durP2;ratioP2
71610;SDS011;59459;51.172;6.682;2024-01-16T00:02:05;16.27;;;5.77;;
71610;SDS011;59459;51.172;6.682;2024-01-16T00:04:33;14.45;;;5.70;;
71610;SDS011;59459;51.172;6.682;2024-01-16T00:06:58;12.87;;;5.00;;
71610;SDS011;59459;51.172;6.682;2024-01-16T00:09:23;14.10;;;5.07;;
71610;SDS011;59459;51.172;6.682;2024-01-16T00:11:48;13.73;;;5.10;;
71610;SDS011;59459;51.172;6.682;2024-01-16T00:14:13;14.20;;;5.57;;
71610;SDS011;59459;51.172;6.682;2024-01-16T00:16:45;15.87;;;5.40;;
71610;SDS011;59459;51.172;6.682;2024-01-16T00:19:10;16.52;;;5.68;;
71610;SDS011;59459;51.172;6.682;2024-01-16T00:21:43;13.17;;;5.87;;
71610;SDS011;59459;51.172;6.682;2024-01-16T00:24:10;17.83;;;6.78;;
71610;SDS011;59459;51.172;6.682;2024-01-16T00:26:35;18.73;;;6.50;;
71610;SDS011;59459;51.172;6.682;2024-01-16T00:29:00;18.80;;;6.17;;
71610;SDS011;59459;51.172;6.682;2024-01-16T00:31:26;14.67;;;6.07;;
71610;SDS011;59459;51.172;6.682;2024-01-16T00:33:51;17.43;;;6.90;;
71610;SDS011;59459;51.172;6.682;2024-01-16T00:36:16;18.07;;;7.17;;
71610;SDS011;59459;51.172;6.682;2024-01-16T00:38:41;17.43;;;7.77;;
71610;SDS011;59459;51.172;6.682;2024-01-16T00:41:07;22.70;;;8.23;;
71610;SDS011;59459;51.172;6.682;2024-01-16T00:43:32;19.60;;;8.17;;
71610;SDS011;59459;51.172;6.682;2024-01-16T00:45:57;21.00;;;7.93;;
71610;SDS011;59459;51.172;6.682;2024-01-16T00:48:22;22.43;;;8.10;;
71610;SDS011;59459;51.172;6.682;2024-01-16T00:50:48;21.93;;;8.57;;
71610;SDS011;59459;51.172;6.682;2024-01-16T00:53:15;25.20;;;8.57;;
71610;SDS011;59459;51.172;6.682;2024-01-16T00:55:40;19.60;;;7.60;;
71610;SDS011;59459;51.172;6.682;2024-01-16T00:58:06;24.20;;;8.43;;
71610;SDS011;59459;51.172;6.682;2024-01-16T01:00:31;29.93;;;9.03;;
71610;SDS011;59459;51.172;6.682;2024-01-16T01:02:57;21.02;;;8.57;;
71610;SDS011;59459;51.172;6.682;2024-01-16T01:05:23;25.53;;;9.10;;
71610;SDS011;59459;51.172;6.682;2024-01-16T01:07:53;19.80;;;8.07;;
71610;SDS011;59459;51.172;6.682;2024-01-16T01:10:18;23.20;;;8.17;;
71610;SDS011;59459;51.172;6.682;2024-01-16T01:12:43;24.80;;;8.83;;
71610;SDS011;59459;51.172;6.682;2024-01-16T01:15:08;21.67;;;9.40;;
71610;SDS011;59459;51.172;6.682;2024-01-16T01:17:35;19.00;;;8.00;;
71610;SDS011;59459;51.172;6.682;2024-01-16T01:20:00;20.43;;;7.77;;
71610;SDS011;59459;51.172;6.682;2024-01-16T01:22:26;19.17;;;7.50;;
71610;SDS011;59459;51.172;6.682;2024-01-16T01:24:51;21.50;;;7.87;;
71610;SDS011;59459;51.172;6.682;2024-01-16T01:27:16;23.47;;;8.87;;
71610;SDS011;59459;51.172;6.682;2024-01-16T01:29:41;18.90;;;7.93;;
71610;SDS011;59459;51.172;6.682;2024-01-16T01:32:06;19.27;;;7.90;;
71610;SDS011;59459;51.172;6.682;2024-01-16T01:34:32;18.93;;;7.63;;
71610;SDS011;59459;51.172;6.682;2024-01-16T01:36:57;17.43;;;6.47;;
71610;SDS011;59459;51.172;6.682;2024-01-16T01:39:23;17.07;;;6.90;;
71610;SDS011;59459;51.172;6.682;2024-01-16T01:41:48;14.20;;;6.20;;
71610;SDS011;59459;51.172;6.682;2024-01-16T01:44:13;17.97;;;7.47;;
71610;SDS011;59459;51.172;6.682;2024-01-16T01:46:41;16.58;;;6.20;;
71610;SDS011;59459;51.172;6.682;2024-01-16T01:49:06;14.98;;;6.32;;
71610;SDS011;59459;51.172;6.682;2024-01-16T01:51:32;15.20;;;6.83;;
71610;SDS011;59459;51.172;6.682;2024-01-16T01:53:58;14.60;;;6.68;;
71610;SDS011;59459;51.172;6.682;2024-01-16T01:56:24;17.03;;;7.73;;
71610;SDS011;59459;51.172;6.682;2024-01-16T01:58:51;18.67;;;7.15;;
71610;SDS011;59459;51.172;6.682;2024-01-16T02:01:18;22.70;;;7.63;;
71610;SDS011;59459;51.172;6.682;2024-01-16T02:03:45;17.33;;;6.60;;
71610;SDS011;59459;51.172;6.682;2024-01-16T02:06:11;22.77;;;8.10;;
71610;SDS011;59459;51.172;6.682;2024-01-16T02:08:37;18.23;;;7.45;;
71610;SDS011;59459;51.172;6.682;2024-01-16T02:11:02;21.73;;;9.13;;
71610;SDS011;59459;51.172;6.682;2024-01-16T02:13:27;20.83;;;8.63;;
71610;SDS011;59459;51.172;6.682;2024-01-16T02:15:53;18.73;;;7.63;;
71610;SDS011;59459;51.172;6.682;2024-01-16T02:18:21;23.90;;;8.50;;
71610;SDS011;59459;51.172;6.682;2024-01-16T02:20:47;19.77;;;8.15;;
71610;SDS011;59459;51.172;6.682;2024-01-16T02:23:13;22.80;;;8.80;;
71610;SDS011;59459;51.172;6.682;2024-01-16T02:25:39;20.08;;;8.65;;
71610;SDS011;59459;51.172;6.682;2024-01-16T02:28:04;18.20;;;7.87;;
71610;SDS011;59459;51.172;6.682;2024-01-16T02:30:30;18.00;;;7.60;;
71610;SDS011;59459;51.172;6.682;2024-01-16T02:32:55;19.67;;;7.90;;
71610;SDS011;59459;51.172;6.682;2024-01-16T02:35:20;19.33;;;6.93;;
71610;SDS011;59459;51.172;6.682;2024-01-16T02:37:45;19.23;;;8.00;;
71610;SDS011;59459;51.172;6.682;2024-01-16T02:40:11;22.73;;;7.50;;
71610;SDS011;59459;51.172;6.682;2024-01-16T02:42:36;18.37;;;7.40;;
71610;SDS011;59459;51.172;6.682;2024-01-16T02:45:02;22.57;;;7.67;;
71610;SDS011;59459;51.172;6.682;2024-01-16T02:47:28;22.40;;;6.95;;
71610;SDS011;59459;51.172;6.682;2024-01-16T02:49:53;19.93;;;7.67;;
71610;SDS011;59459;51.172;6.682;2024-01-16T02:52:19;19.80;;;6.73;;
71610;SDS011;59459;51.172;6.682;2024-01-16T02:54:44;17.63;;;6.60;;
71610;SDS011;59459;51.172;6.682;2024-01-16T02:57:09;15.50;;;7.10;;
71610;SDS011;59459;51.172;6.682;2024-01-16T02:59:35;18.98;;;7.45;;
71610;SDS011;59459;51.172;6.682;2024-01-16T03:02:00;18.07;;;7.33;;
71610;SDS011;59459;51.172;6.682;2024-01-16T03:04:25;20.03;;;7.30;;
71610;SDS011;59459;51.172;6.682;2024-01-16T03:06:51;22.23;;;7.17;;
71610;SDS011;59459;51.172;6.682;2024-01-16T03:09:16;15.30;;;6.37;;
71610;SDS011;59459;51.172;6.682;2024-01-16T03:11:41;16.67;;;6.57;;
71610;SDS011;59459;51.172;6.682;2024-01-16T03:14:06;16.53;;;6.93;;
71610;SDS011;59459;51.172;6.682;2024-01-16T03:16:32;17.45;;;6.38;;
71610;SDS011;59459;51.172;6.682;2024-01-16T03:18:57;16.10;;;5.50;;
71610;SDS011;59459;51.172;6.682;2024-01-16T03:21:22;18.03;;;6.03;;
71610;SDS011;59459;51.172;6.682;2024-01-16T03:23:48;14.10;;;5.70;;
71610;SDS011;59459;51.172;6.682;2024-01-16T03:26:13;14.67;;;5.33;;
71610;SDS011;59459;51.172;6.682;2024-01-16T03:28:39;12.65;;;5.40;;
71610;SDS011;59459;51.172;6.682;2024-01-16T03:31:05;13.57;;;4.90;;
71610;SDS011;59459;51.172;6.682;2024-01-16T03:33:30;14.97;;;6.20;;
71610;SDS011;59459;51.172;6.682;2024-01-16T03:35:55;16.53;;;6.57;;
71610;SDS011;59459;51.172;6.682;2024-01-16T03:38:20;20.73;;;6.70;;
71610;SDS011;59459;51.172;6.682;2024-01-16T03:40:45;16.00;;;6.13;;
71610;SDS011;59459;51.172;6.682;2024-01-16T03:43:11;12.93;;;5.87;;
71610;SDS011;59459;51.172;6.682;2024-01-16T03:45:36;16.63;;;6.23;;
71610;SDS011;59459;51.172;6.682;2024-01-16T03:48:02;17.57;;;6.03;;
71610;SDS011;59459;51.172;6.682;2024-01-16T03:50:28;15.63;;;5.95;;
71610;SDS011;59459;51.172;6.682;2024-01-16T03:52:53;14.97;;;5.10;;
71610;SDS011;59459;51.172;6.682;2024-01-16T03:55:18;15.60;;;5.97;;
71610;SDS011;59459;51.172;6.682;2024-01-16T03:57:43;13.43;;;5.43;;
71610;SDS011;59459;51.172;6.682;2024-01-16T04:00:11;15.07;;;5.17;;
71610;SDS011;59459;51.172;6.682;2024-01-16T04:02:37;16.35;;;5.30;;
71610;SDS011;59459;51.172;6.682;2024-01-16T04:05:03;15.10;;;5.40;;
71610;SDS011;59459;51.172;6.682;2024-01-16T04:07:28;12.43;;;4.67;;
71610;SDS011;59459;51.172;6.682;2024-01-16T04:09:53;15.87;;;4.87;;
71610;SDS011;59459;51.172;6.682;2024-01-16T04:12:18;17.20;;;4.50;;
71610;SDS011;59459;51.172;6.682;2024-01-16T04:14:44;11.07;;;4.27;;
71610;SDS011;59459;51.172;6.682;2024-01-16T04:17:09;10.67;;;4.87;;
71610;SDS011;59459;51.172;6.682;2024-01-16T04:19:34;12.73;;;4.63;;
71610;SDS011;59459;51.172;6.682;2024-01-16T04:22:00;14.67;;;5.63;;
71610;SDS011;59459;51.172;6.682;2024-01-16T04:24:26;14.15;;;5.47;;
71610;SDS011;59459;51.172;6.682;2024-01-16T04:26:51;14.70;;;6.40;;
71610;SDS011;59459;51.172;6.682;2024-01-16T04:29:16;13.90;;;5.93;;
71610;SDS011;59459;51.172;6.682;2024-01-16T04:31:41;15.63;;;6.23;;
71610;SDS011;59459;51.172;6.682;2024-01-16T04:34:07;18.83;;;7.23;;
71610;SDS011;59459;51.172;6.682;2024-01-16T04:36:32;17.40;;;6.35;;
71610;SDS011;59459;51.172;6.682;2024-01-16T04:38:58;15.27;;;7.00;;
71610;SDS011;59459;51.172;6.682;2024-01-16T04:41:23;17.60;;;7.60;;
71610;SDS011;59459;51.172;6.682;2024-01-16T04:43:48;18.83;;;7.23;;
71610;SDS011;59459;51.172;6.682;2024-01-16T04:46:15;18.55;;;6.47;;
71610;SDS011;59459;51.172;6.682;2024-01-16T04:48:40;16.47;;;6.80;;
71610;SDS011;59459;51.172;6.682;2024-01-16T04:51:06;16.27;;;7.17;;
71610;SDS011;59459;51.172;6.682;2024-01-16T04:53:32;18.58;;;6.30;;
71610;SDS011;59459;51.172;6.682;2024-01-16T04:55:57;16.17;;;6.57;;
71610;SDS011;59459;51.172;6.682;2024-01-16T04:58:23;17.77;;;5.07;;
71610;SDS011;59459;51.172;6.682;2024-01-16T05:00:48;17.43;;;6.23;;
71610;SDS011;59459;51.172;6.682;2024-01-16T05:03:13;17.33;;;5.80;;
71610;SDS011;59459;51.172;6.682;2024-01-16T05:05:38;15.43;;;6.33;;
71610;SDS011;59459;51.172;6.682;2024-01-16T05:08:04;17.13;;;6.30;;
71610;SDS011;59459;51.172;6.682;2024-01-16T05:10:29;18.23;;;7.17;;
71610;SDS011;59459;51.172;6.682;2024-01-16T05:12:55;20.02;;;7.13;;
71610;SDS011;59459;51.172;6.682;2024-01-16T05:15:20;21.03;;;7.73;;
71610;SDS011;59459;51.172;6.682;2024-01-16T05:17:46;15.87;;;5.97;;
71610;SDS011;59459;51.172;6.682;2024-01-16T05:20:11;17.43;;;6.83;;
71610;SDS011;59459;51.172;6.682;2024-01-16T05:22:36;15.80;;;5.63;;
71610;SDS011;59459;51.172;6.682;2024-01-16T05:25:04;14.87;;;6.07;;
71610;SDS011;59459;51.172;6.682;2024-01-16T05:27:29;13.05;;;5.60;;
71610;SDS011;59459;51.172;6.682;2024-01-16T05:29:54;15.93;;;5.40;;
71610;SDS011;59459;51.172;6.682;2024-01-16T05:32:20;15.30;;;5.03;;
71610;SDS011;59459;51.172;6.682;2024-01-16T05:34:45;17.63;;;5.80;;
71610;SDS011;59459;51.172;6.682;2024-01-16T05:37:10;14.97;;;5.30;;
71610;SDS011;59459;51.172;6.682;2024-01-16T05:39:35;12.40;;;4.87;;
71610;SDS011;59459;51.172;6.682;2024-01-16T05:42:01;13.95;;;5.00;;
71610;SDS011;59459;51.172;6.682;2024-01-16T05:44:27;17.48;;;5.65;;
71610;SDS011;59459;51.172;6.682;2024-01-16T05:46:52;11.23;;;4.00;;
71610;SDS011;59459;51.172;6.682;2024-01-16T05:49:18;16.03;;;4.30;;
71610;SDS011;59459;51.172;6.682;2024-01-16T05:51:43;15.67;;;4.27;;
71610;SDS011;59459;51.172;6.682;2024-01-16T05:54:08;14.63;;;4.47;;
71610;SDS011;59459;51.172;6.682;2024-01-16T05:56:33;16.13;;;4.80;;
71610;SDS011;59459;51.172;6.682;2024-01-16T05:58:59;15.43;;;4.00;;
71610;SDS011;59459;51.172;6.682;2024-01-16T06:01:24;13.53;;;4.40;;
71610;SDS011;59459;51.172;6.682;2024-01-16T06:03:49;12.33;;;4.80;;
71610;SDS011;59459;51.172;6.682;2024-01-16T06:06:15;14.50;;;4.70;;
71610;SDS011;59459;51.172;6.682;2024-01-16T06:08:40;13.00;;;3.87;;
71610;SDS011;59459;51.172;6.682;2024-01-16T06:11:05;9.70;;;3.92;;
71610;SDS011;59459;51.172;6.682;2024-01-16T06:13:30;9.20;;;2.93;;
71610;SDS011;59459;51.172;6.682;2024-01-16T06:15:57;9.70;;;3.33;;
71610;SDS011;59459;51.172;6.682;2024-01-16T06:18:22;11.03;;;4.07;;
71610;SDS011;59459;51.172;6.682;2024-01-16T06:20:48;9.50;;;3.67;;
71610;SDS011;59459;51.172;6.682;2024-01-16T06:23:13;9.07;;;2.90;;
71610;SDS011;59459;51.172;6.682;2024-01-16T06:25:38;12.13;;;3.20;;
71610;SDS011;59459;51.172;6.682;2024-01-16T06:28:03;9.83;;;2.97;;
71610;SDS011;59459;51.172;6.682;2024-01-16T06:30:30;10.52;;;3.30;;
71610;SDS011;59459;51.172;6.682;2024-01-16T06:32:55;12.67;;;3.03;;
71610;SDS011;59459;51.172;6.682;2024-01-16T06:35:20;12.87;;;3.03;;
71610;SDS011;59459;51.172;6.682;2024-01-16T06:37:46;9.67;;;2.60;;
71610;SDS011;59459;51.172;6.682;2024-01-16T06:40:11;12.10;;;2.80;;
71610;SDS011;59459;51.172;6.682;2024-01-16T06:42:36;9.87;;;2.97;;
71610;SDS011;59459;51.172;6.682;2024-01-16T06:45:02;8.97;;;2.60;;
71610;SDS011;59459;51.172;6.682;2024-01-16T06:47:27;12.77;;;3.00;;
71610;SDS011;59459;51.172;6.682;2024-01-16T06:49:53;9.73;;;2.50;;
71610;SDS011;59459;51.172;6.682;2024-01-16T06:52:18;8.70;;;2.30;;
71610;SDS011;59459;51.172;6.682;2024-01-16T06:54:44;11.90;;;2.50;;
71610;SDS011;59459;51.172;6.682;2024-01-16T06:57:09;9.53;;;2.50;;
71610;SDS011;59459;51.172;6.682;2024-01-16T06:59:34;6.60;;;1.87;;
71610;SDS011;59459;51.172;6.682;2024-01-16T07:01:59;11.03;;;1.97;;
71610;SDS011;59459;51.172;6.682;2024-01-16T07:04:24;7.60;;;2.73;;
71610;SDS011;59459;51.172;6.682;2024-01-16T07:06:50;7.37;;;2.33;;
71610;SDS011;59459;51.172;6.682;2024-01-16T07:09:15;7.60;;;2.00;;
71610;SDS011;59459;51.172;6.682;2024-01-16T07:11:41;7.07;;;1.88;;
71610;SDS011;59459;51.172;6.682;2024-01-16T07:14:08;5.03;;;1.80;;
71610;SDS011;59459;51.172;6.682;2024-01-16T07:16:33;5.85;;;2.03;;
71610;SDS011;59459;51.172;6.682;2024-01-16T07:18:59;9.43;;;1.97;;
71610;SDS011;59459;51.172;6.682;2024-01-16T07:21:24;6.10;;;1.75;;
71610;SDS011;59459;51.172;6.682;2024-01-16T07:23:49;8.23;;;1.73;;
71610;SDS011;59459;51.172;6.682;2024-01-16T07:26:15;10.90;;;1.93;;
71610;SDS011;59459;51.172;6.682;2024-01-16T07:28:41;10.90;;;2.00;;
71610;SDS011;59459;51.172;6.682;2024-01-16T07:31:07;8.57;;;1.98;;
71610;SDS011;59459;51.172;6.682;2024-01-16T07:33:32;11.63;;;2.03;;
71610;SDS011;59459;51.172;6.682;2024-01-16T07:35:57;5.67;;;1.37;;
71610;SDS011;59459;51.172;6.682;2024-01-16T07:38:22;11.10;;;2.50;;
71610;SDS011;59459;51.172;6.682;2024-01-16T07:40:48;6.77;;;1.87;;
71610;SDS011;59459;51.172;6.682;2024-01-16T07:43:13;8.13;;;2.03;;
71610;SDS011;59459;51.172;6.682;2024-01-16T07:45:38;14.13;;;2.80;;
71610;SDS011;59459;51.172;6.682;2024-01-16T07:48:03;9.53;;;2.07;;
71610;SDS011;59459;51.172;6.682;2024-01-16T07:50:29;8.97;;;2.50;;
71610;SDS011;59459;51.172;6.682;2024-01-16T07:52:54;6.83;;;1.83;;
71610;SDS011;59459;51.172;6.682;2024-01-16T07:55:19;8.13;;;2.13;;
71610;SDS011;59459;51.172;6.682;2024-01-16T07:57:44;12.27;;;2.60;;
71610;SDS011;59459;51.172;6.682;2024-01-16T08:00:10;9.50;;;2.20;;
71610;SDS011;59459;51.172;6.682;2024-01-16T08:02:38;7.93;;;2.20;;
71610;SDS011;59459;51.172;6.682;2024-01-16T08:05:04;10.23;;;2.43;;
71610;SDS011;59459;51.172;6.682;2024-01-16T08:07:29;8.03;;;2.87;;
71610;SDS011;59459;51.172;6.682;2024-01-16T08:09:54;7.83;;;2.40;;
71610;SDS011;59459;51.172;6.682;2024-01-16T08:12:20;14.70;;;2.87;;
71610;SDS011;59459;51.172;6.682;2024-01-16T08:14:45;7.23;;;2.60;;
71610;SDS011;59459;51.172;6.682;2024-01-16T08:17:10;10.93;;;3.47;;
71610;SDS011;59459;51.172;6.682;2024-01-16T08:19:35;8.87;;;2.63;;
71610;SDS011;59459;51.172;6.682;2024-01-16T08:22:01;14.40;;;2.73;;
71610;SDS011;59459;51.172;6.682;2024-01-16T08:24:27;12.82;;;3.13;;
71610;SDS011;59459;51.172;6.682;2024-01-16T08:26:52;9.53;;;3.07;;
71610;SDS011;59459;51.172;6.682;2024-01-16T08:29:17;6.37;;;2.60;;
71610;SDS011;59459;51.172;6.682;2024-01-16T08:31:43;15.83;;;3.27;;
71610;SDS011;59459;51.172;6.682;2024-01-16T08:34:08;15.43;;;3.03;;
71610;SDS011;59459;51.172;6.682;2024-01-16T08:36:33;9.30;;;3.17;;
71610;SDS011;59459;51.172;6.682;2024-01-16T08:38:58;6.30;;;2.13;;
71610;SDS011;59459;51.172;6.682;2024-01-16T08:41:23;5.17;;;2.13;;
71610;SDS011;59459;51.172;6.682;2024-01-16T08:43:49;6.83;;;2.07;;
71610;SDS011;59459;51.172;6.682;2024-01-16T08:46:14;8.87;;;2.40;;
71610;SDS011;59459;51.172;6.682;2024-01-16T08:48:40;11.20;;;2.40;;
71610;SDS011;59459;51.172;6.682;2024-01-16T08:51:07;6.18;;;2.47;;
71610;SDS011;59459;51.172;6.682;2024-01-16T08:53:32;10.40;;;3.08;;
71610;SDS011;59459;51.172;6.682;2024-01-16T08:55:59;11.30;;;3.50;;
71610;SDS011;59459;51.172;6.682;2024-01-16T08:58:24;11.43;;;3.20;;
71610;SDS011;59459;51.172;6.682;2024-01-16T09:00:50;11.97;;;2.40;;
71610;SDS011;59459;51.172;6.682;2024-01-16T09:03:15;10.17;;;3.53;;
71610;SDS011;59459;51.172;6.682;2024-01-16T09:05:41;11.13;;;2.85;;
71610;SDS011;59459;51.172;6.682;2024-01-16T09:08:06;3.97;;;1.63;;
71610;SDS011;59459;51.172;6.682;2024-01-16T09:10:31;12.07;;;2.40;;
71610;SDS011;59459;51.172;6.682;2024-01-16T09:12:57;8.47;;;2.80;;
71610;SDS011;59459;51.172;6.682;2024-01-16T09:15:22;5.17;;;2.07;;
71610;SDS011;59459;51.172;6.682;2024-01-16T09:17:47;8.23;;;2.40;;
71610;SDS011;59459;51.172;6.682;2024-01-16T09:20:12;13.43;;;2.83;;
71610;SDS011;59459;51.172;6.682;2024-01-16T09:22:37;7.17;;;2.10;;
71610;SDS011;59459;51.172;6.682;2024-01-16T09:25:03;6.80;;;2.37;;
71610;SDS011;59459;51.172;6.682;2024-01-16T09:27:28;8.07;;;2.53;;
71610;SDS011;59459;51.172;6.682;2024-01-16T09:29:53;8.93;;;3.13;;
71610;SDS011;59459;51.172;6.682;2024-01-16T09:32:18;6.60;;;2.37;;
71610;SDS011;59459;51.172;6.682;2024-01-16T09:34:44;9.30;;;3.00;;
71610;SDS011;59459;51.172;6.682;2024-01-16T09:37:09;7.20;;;2.97;;
71610;SDS011;59459;51.172;6.682;2024-01-16T09:39:34;10.27;;;3.10;;
71610;SDS011;59459;51.172;6.682;2024-01-16T09:42:02;13.65;;;2.55;;
71610;SDS011;59459;51.172;6.682;2024-01-16T09:44:28;9.33;;;2.50;;
71610;SDS011;59459;51.172;6.682;2024-01-16T09:46:53;8.65;;;2.50;;
71610;SDS011;59459;51.172;6.682;2024-01-16T09:49:19;10.90;;;2.93;;
71610;SDS011;59459;51.172;6.682;2024-01-16T09:51:45;8.53;;;2.53;;
71610;SDS011;59459;51.172;6.682;2024-01-16T09:54:10;5.23;;;2.03;;
71610;SDS011;59459;51.172;6.682;2024-01-16T09:56:38;8.33;;;2.40;;
71610;SDS011;59459;51.172;6.682;2024-01-16T09:59:05;10.27;;;3.10;;
71610;SDS011;59459;51.172;6.682;2024-01-16T10:01:30;6.78;;;2.20;;
71610;SDS011;59459;51.172;6.682;2024-01-16T10:03:55;6.87;;;2.43;;
71610;SDS011;59459;51.172;6.682;2024-01-16T10:06:21;7.97;;;2.10;;
71610;SDS011;59459;51.172;6.682;2024-01-16T10:08:48;10.13;;;3.03;;
71610;SDS011;59459;51.172;6.682;2024-01-16T10:11:13;7.43;;;2.33;;
71610;SDS011;59459;51.172;6.682;2024-01-16T10:13:38;6.50;;;2.40;;
71610;SDS011;59459;51.172;6.682;2024-01-16T10:16:03;9.03;;;2.43;;
71610;SDS011;59459;51.172;6.682;2024-01-16T10:18:29;9.00;;;2.63;;
71610;SDS011;59459;51.172;6.682;2024-01-16T10:20:58;11.43;;;3.70;;
71610;SDS011;59459;51.172;6.682;2024-01-16T10:23:27;8.80;;;2.20;;
71610;SDS011;59459;51.172;6.682;2024-01-16T10:26:08;7.20;;;2.23;;
71610;SDS011;59459;51.172;6.682;2024-01-16T10:28:34;8.55;;;3.00;;
71610;SDS011;59459;51.172;6.682;2024-01-16T10:31:03;6.97;;;2.15;;
71610;SDS011;59459;51.172;6.682;2024-01-16T10:33:29;7.53;;;2.67;;
71610;SDS011;59459;51.172;6.682;2024-01-16T10:38:35;12.07;;;2.90;;
71610;SDS011;59459;51.172;6.682;2024-01-16T10:43:31;5.90;;;2.60;;
71610;SDS011;59459;51.172;6.682;2024-01-16T10:46:06;9.00;;;2.53;;
71610;SDS011;59459;51.172;6.682;2024-01-16T10:48:31;11.68;;;2.38;;
71610;SDS011;59459;51.172;6.682;2024-01-16T10:50:56;8.73;;;2.70;;
71610;SDS011;59459;51.172;6.682;2024-01-16T10:53:22;7.33;;;2.93;;
71610;SDS011;59459;51.172;6.682;2024-01-16T10:58:16;10.40;;;2.95;;
71610;SDS011;59459;51.172;6.682;2024-01-16T11:00:41;12.45;;;2.80;;
71610;SDS011;59459;51.172;6.682;2024-01-16T11:03:09;10.43;;;2.80;;
71610;SDS011;59459;51.172;6.682;2024-01-16T11:05:36;6.03;;;2.67;;
71610;SDS011;59459;51.172;6.682;2024-01-16T11:08:02;9.65;;;2.92;;
71610;SDS011;59459;51.172;6.682;2024-01-16T11:10:31;5.75;;;1.90;;
71610;SDS011;59459;51.172;6.682;2024-01-16T11:12:59;7.43;;;2.85;;
71610;SDS011;59459;51.172;6.682;2024-01-16T11:15:24;12.83;;;2.90;;
71610;SDS011;59459;51.172;6.682;2024-01-16T11:17:50;13.23;;;3.28;;
71610;SDS011;59459;51.172;6.682;2024-01-16T11:20:15;7.03;;;2.47;;
71610;SDS011;59459;51.172;6.682;2024-01-16T11:22:44;8.15;;;2.42;;
71610;SDS011;59459;51.172;6.682;2024-01-16T11:25:13;11.35;;;2.75;;
71610;SDS011;59459;51.172;6.682;2024-01-16T11:27:40;10.25;;;3.25;;
71610;SDS011;59459;51.172;6.682;2024-01-16T11:30:06;9.07;;;2.53;;
71610;SDS011;59459;51.172;6.682;2024-01-16T11:32:41;9.30;;;3.40;;
71610;SDS011;59459;51.172;6.682;2024-01-16T11:35:09;9.48;;;3.05;;
71610;SDS011;59459;51.172;6.682;2024-01-16T11:37:36;7.20;;;2.50;;
71610;SDS011;59459;51.172;6.682;2024-01-16T11:42:48;10.53;;;3.30;;
71610;SDS011;59459;51.172;6.682;2024-01-16T11:50:35;8.45;;;2.80;;
71610;SDS011;59459;51.172;6.682;2024-01-16T11:53:00;8.93;;;2.47;;
71610;SDS011;59459;51.172;6.682;2024-01-16T11:55:30;6.43;;;2.73;;
71610;SDS011;59459;51.172;6.682;2024-01-16T12:00:42;9.70;;;3.00;;
71610;SDS011;59459;51.172;6.682;2024-01-16T12:03:10;8.10;;;2.47;;
71610;SDS011;59459;51.172;6.682;2024-01-16T12:05:38;6.60;;;2.50;;
71610;SDS011;59459;51.172;6.682;2024-01-16T12:08:03;10.10;;;2.87;;
71610;SDS011;59459;51.172;6.682;2024-01-16T12:10:29;14.07;;;3.53;;
71610;SDS011;59459;51.172;6.682;2024-01-16T12:13:00;8.67;;;2.97;;
71610;SDS011;59459;51.172;6.682;2024-01-16T12:15:27;12.13;;;3.28;;
71610;SDS011;59459;51.172;6.682;2024-01-16T12:17:59;7.73;;;2.60;;
71610;SDS011;59459;51.172;6.682;2024-01-16T12:20:25;11.23;;;3.30;;
71610;SDS011;59459;51.172;6.682;2024-01-16T12:25:19;6.57;;;2.53;;
71610;SDS011;59459;51.172;6.682;2024-01-16T12:27:45;9.77;;;3.10;;
71610;SDS011;59459;51.172;6.682;2024-01-16T12:30:11;11.35;;;3.28;;
71610;SDS011;59459;51.172;6.682;2024-01-16T12:32:38;13.77;;;3.80;;
71610;SDS011;59459;51.172;6.682;2024-01-16T12:35:03;7.50;;;3.27;;
71610;SDS011;59459;51.172;6.682;2024-01-16T12:37:29;8.57;;;3.60;;
71610;SDS011;59459;51.172;6.682;2024-01-16T12:39:54;10.10;;;3.27;;
71610;SDS011;59459;51.172;6.682;2024-01-16T12:42:22;10.95;;;3.13;;
71610;SDS011;59459;51.172;6.682;2024-01-16T12:44:47;9.40;;;3.57;;
71610;SDS011;59459;51.172;6.682;2024-01-16T12:47:15;10.90;;;2.90;;
71610;SDS011;59459;51.172;6.682;2024-01-16T12:49:41;7.60;;;2.15;;
71610;SDS011;59459;51.172;6.682;2024-01-16T12:52:21;10.30;;;2.83;;
71610;SDS011;59459;51.172;6.682;2024-01-16T12:54:56;7.38;;;2.65;;
71610;SDS011;59459;51.172;6.682;2024-01-16T12:57:23;11.88;;;3.55;;
71610;SDS011;59459;51.172;6.682;2024-01-16T12:59:48;8.80;;;3.43;;
71610;SDS011;59459;51.172;6.682;2024-01-16T13:02:22;7.37;;;2.97;;
71610;SDS011;59459;51.172;6.682;2024-01-16T13:04:48;12.82;;;3.13;;
71610;SDS011;59459;51.172;6.682;2024-01-16T13:07:16;7.37;;;3.03;;
71610;SDS011;59459;51.172;6.682;2024-01-16T13:09:43;5.47;;;2.85;;
71610;SDS011;59459;51.172;6.682;2024-01-16T13:12:08;9.63;;;3.50;;
71610;SDS011;59459;51.172;6.682;2024-01-16T13:14:33;9.47;;;3.00;;
71610;SDS011;59459;51.172;6.682;2024-01-16T13:16:59;9.33;;;2.97;;
71610;SDS011;59459;51.172;6.682;2024-01-16T13:19:26;9.43;;;3.17;;
71610;SDS011;59459;51.172;6.682;2024-01-16T13:21:51;11.23;;;3.20;;
71610;SDS011;59459;51.172;6.682;2024-01-16T13:24:17;9.80;;;3.07;;
71610;SDS011;59459;51.172;6.682;2024-01-16T13:26:43;9.10;;;3.00;;
71610;SDS011;59459;51.172;6.682;2024-01-16T13:29:08;8.55;;;3.17;;
71610;SDS011;59459;51.172;6.682;2024-01-16T13:31:34;10.93;;;3.63;;
71610;SDS011;59459;51.172;6.682;2024-01-16T13:33:59;7.37;;;3.20;;
71610;SDS011;59459;51.172;6.682;2024-01-16T13:36:24;8.00;;;2.90;;
71610;SDS011;59459;51.172;6.682;2024-01-16T13:38:50;9.60;;;3.70;;
71610;SDS011;59459;51.172;6.682;2024-01-16T13:41:15;9.27;;;3.03;;
71610;SDS011;59459;51.172;6.682;2024-01-16T13:43:40;4.87;;;2.57;;
71610;SDS011;59459;51.172;6.682;2024-01-16T13:46:06;9.27;;;3.13;;
71610;SDS011;59459;51.172;6.682;2024-01-16T13:48:33;8.73;;;2.33;;
71610;SDS011;59459;51.172;6.682;2024-01-16T13:50:58;8.43;;;3.43;;
71610;SDS011;59459;51.172;6.682;2024-01-16T13:53:23;13.30;;;2.60;;
71610;SDS011;59459;51.172;6.682;2024-01-16T13:55:49;11.20;;;3.13;;
71610;SDS011;59459;51.172;6.682;2024-01-16T13:58:14;10.73;;;2.90;;
71610;SDS011;59459;51.172;6.682;2024-01-16T14:00:39;8.17;;;2.97;;
71610;SDS011;59459;51.172;6.682;2024-01-16T14:03:04;8.73;;;3.03;;
71610;SDS011;59459;51.172;6.682;2024-01-16T14:05:31;10.90;;;3.30;;
71610;SDS011;59459;51.172;6.682;2024-01-16T14:07:56;8.93;;;3.22;;
71610;SDS011;59459;51.172;6.682;2024-01-16T14:10:22;11.30;;;3.10;;
71610;SDS011;59459;51.172;6.682;2024-01-16T14:12:49;7.43;;;2.90;;
71610;SDS011;59459;51.172;6.682;2024-01-16T14:15:16;11.55;;;3.47;;
71610;SDS011;59459;51.172;6.682;2024-01-16T14:17:43;10.25;;;3.15;;
71610;SDS011;59459;51.172;6.682;2024-01-16T14:20:12;10.80;;;3.47;;
71610;SDS011;59459;51.172;6.682;2024-01-16T14:22:41;11.40;;;3.08;;
71610;SDS011;59459;51.172;6.682;2024-01-16T14:25:07;12.37;;;2.93;;
71610;SDS011;59459;51.172;6.682;2024-01-16T14:27:39;14.40;;;3.25;;
71610;SDS011;59459;51.172;6.682;2024-01-16T14:30:06;9.13;;;2.63;;
71610;SDS011;59459;51.172;6.682;2024-01-16T14:32:32;7.18;;;3.20;;
71610;SDS011;59459;51.172;6.682;2024-01-16T14:34:57;7.07;;;2.73;;
71610;SDS011;59459;51.172;6.682;2024-01-16T14:37:22;9.70;;;3.40;;
71610;SDS011;59459;51.172;6.682;2024-01-16T14:39:48;8.83;;;3.30;;
71610;SDS011;59459;51.172;6.682;2024-01-16T14:42:13;10.17;;;3.60;;
71610;SDS011;59459;51.172;6.682;2024-01-16T14:44:38;11.70;;;4.33;;
71610;SDS011;59459;51.172;6.682;2024-01-16T14:47:03;24.33;;;7.50;;
71610;SDS011;59459;51.172;6.682;2024-01-16T14:49:29;20.93;;;9.30;;
71610;SDS011;59459;51.172;6.682;2024-01-16T14:51:57;13.68;;;4.80;;